sensor_id;sensor_type;location;lat;lon;timestamp;P1;durP1;ratioP1;P2;durP2;ratioP2
20734;SDS011;10528;52.124;5.196;2023-05-10T00:00:25;34.28;;;22.70;;
20734;SDS011;10528;52.124;5.196;2023-05-10T00:02:52;32.72;;;22.67;;
20734;SDS011;10528;52.124;5.196;2023-05-10T00:05:19;34.70;;;22.75;;
20734;SDS011;10528;52.124;5.196;2023-05-10T00:07:46;32.50;;;21.67;;
20734;SDS011;10528;52.124;5.196;2023-05-10T00:10:13;32.53;;;21.30;;
20734;SDS011;10528;52.124;5.196;2023-05-10T00:12:40;32.10;;;21.45;;
20734;SDS011;10528;52.124;5.196;2023-05-10T00:15:08;32.05;;;21.30;;
20734;SDS011;10528;52.124;5.196;2023-05-10T00:17:35;33.83;;;22.05;;
20734;SDS011;10528;52.124;5.196;2023-05-10T00:20:02;33.05;;;22.23;;
20734;SDS011;10528;52.124;5.196;2023-05-10T00:22:31;33.58;;;22.23;;
20734;SDS011;10528;52.124;5.196;2023-05-10T00:24:58;36.70;;;22.95;;
20734;SDS011;10528;52.124;5.196;2023-05-10T00:27:25;35.10;;;22.33;;
20734;SDS011;10528;52.124;5.196;2023-05-10T00:29:52;33.95;;;22.80;;
20734;SDS011;10528;52.124;5.196;2023-05-10T00:32:19;36.50;;;23.77;;
20734;SDS011;10528;52.124;5.196;2023-05-10T00:34:46;35.67;;;23.58;;
20734;SDS011;10528;52.124;5.196;2023-05-10T00:37:14;38.38;;;25.65;;
20734;SDS011;10528;52.124;5.196;2023-05-10T00:39:41;40.65;;;25.77;;
20734;SDS011;10528;52.124;5.196;2023-05-10T00:42:07;34.63;;;24.08;;
20734;SDS011;10528;52.124;5.196;2023-05-10T00:44:34;37.35;;;23.98;;
20734;SDS011;10528;52.124;5.196;2023-05-10T00:47:01;35.80;;;22.83;;
20734;SDS011;10528;52.124;5.196;2023-05-10T00:49:28;35.35;;;23.50;;
20734;SDS011;10528;52.124;5.196;2023-05-10T00:51:55;34.78;;;23.65;;
20734;SDS011;10528;52.124;5.196;2023-05-10T00:54:23;36.97;;;24.77;;
20734;SDS011;10528;52.124;5.196;2023-05-10T00:56:50;41.08;;;26.05;;
20734;SDS011;10528;52.124;5.196;2023-05-10T00:59:18;40.45;;;25.80;;
20734;SDS011;10528;52.124;5.196;2023-05-10T01:01:45;40.83;;;26.23;;
20734;SDS011;10528;52.124;5.196;2023-05-10T01:04:13;39.50;;;25.63;;
20734;SDS011;10528;52.124;5.196;2023-05-10T01:06:41;41.25;;;26.40;;
20734;SDS011;10528;52.124;5.196;2023-05-10T01:09:09;40.80;;;26.33;;
20734;SDS011;10528;52.124;5.196;2023-05-10T01:11:38;44.53;;;26.73;;
20734;SDS011;10528;52.124;5.196;2023-05-10T01:14:06;43.35;;;27.65;;
20734;SDS011;10528;52.124;5.196;2023-05-10T01:16:37;45.42;;;28.23;;
20734;SDS011;10528;52.124;5.196;2023-05-10T01:19:11;47.50;;;27.45;;
20734;SDS011;10528;52.124;5.196;2023-05-10T01:34:07;54.03;;;30.15;;
20734;SDS011;10528;52.124;5.196;2023-05-10T01:36:55;47.42;;;27.58;;
20734;SDS011;10528;52.124;5.196;2023-05-10T01:39:40;46.10;;;26.90;;
20734;SDS011;10528;52.124;5.196;2023-05-10T01:42:23;48.58;;;27.75;;
20734;SDS011;10528;52.124;5.196;2023-05-10T01:45:02;44.90;;;27.20;;
20734;SDS011;10528;52.124;5.196;2023-05-10T01:48:21;44.17;;;25.60;;
20734;SDS011;10528;52.124;5.196;2023-05-10T01:50:53;43.63;;;25.92;;
20734;SDS011;10528;52.124;5.196;2023-05-10T01:53:22;45.50;;;27.27;;
20734;SDS011;10528;52.124;5.196;2023-05-10T01:55:51;43.97;;;25.83;;
20734;SDS011;10528;52.124;5.196;2023-05-10T01:58:23;45.42;;;26.17;;
20734;SDS011;10528;52.124;5.196;2023-05-10T02:00:56;46.60;;;27.55;;
20734;SDS011;10528;52.124;5.196;2023-05-10T02:03:27;50.60;;;27.27;;
20734;SDS011;10528;52.124;5.196;2023-05-10T02:05:57;51.17;;;28.02;;
20734;SDS011;10528;52.124;5.196;2023-05-10T02:08:25;52.47;;;27.80;;
20734;SDS011;10528;52.124;5.196;2023-05-10T02:10:53;52.20;;;27.83;;
20734;SDS011;10528;52.124;5.196;2023-05-10T02:13:23;55.45;;;27.92;;
20734;SDS011;10528;52.124;5.196;2023-05-10T02:15:53;53.45;;;29.08;;
20734;SDS011;10528;52.124;5.196;2023-05-10T02:18:21;55.55;;;28.45;;
20734;SDS011;10528;52.124;5.196;2023-05-10T02:20:50;58.17;;;29.10;;
20734;SDS011;10528;52.124;5.196;2023-05-10T02:23:19;57.17;;;27.67;;
20734;SDS011;10528;52.124;5.196;2023-05-10T02:25:47;56.72;;;27.88;;
20734;SDS011;10528;52.124;5.196;2023-05-10T02:28:19;58.25;;;28.77;;
20734;SDS011;10528;52.124;5.196;2023-05-10T02:30:49;61.03;;;28.63;;
20734;SDS011;10528;52.124;5.196;2023-05-10T02:33:18;59.17;;;29.10;;
20734;SDS011;10528;52.124;5.196;2023-05-10T02:35:47;60.65;;;30.23;;
20734;SDS011;10528;52.124;5.196;2023-05-10T02:38:17;62.70;;;31.05;;
20734;SDS011;10528;52.124;5.196;2023-05-10T02:40:47;63.45;;;31.30;;
20734;SDS011;10528;52.124;5.196;2023-05-10T02:43:15;68.53;;;31.55;;
20734;SDS011;10528;52.124;5.196;2023-05-10T02:45:46;67.93;;;31.83;;
20734;SDS011;10528;52.124;5.196;2023-05-10T02:48:14;66.88;;;30.85;;
20734;SDS011;10528;52.124;5.196;2023-05-10T02:50:45;70.07;;;33.75;;
20734;SDS011;10528;52.124;5.196;2023-05-10T02:53:38;69.53;;;32.22;;
20734;SDS011;10528;52.124;5.196;2023-05-10T02:56:11;69.50;;;32.40;;
20734;SDS011;10528;52.124;5.196;2023-05-10T02:58:43;67.13;;;32.28;;
20734;SDS011;10528;52.124;5.196;2023-05-10T03:01:10;66.07;;;33.15;;
20734;SDS011;10528;52.124;5.196;2023-05-10T03:03:37;63.65;;;33.97;;
20734;SDS011;10528;52.124;5.196;2023-05-10T03:06:04;63.88;;;33.35;;
20734;SDS011;10528;52.124;5.196;2023-05-10T03:08:31;63.17;;;33.70;;
20734;SDS011;10528;52.124;5.196;2023-05-10T03:11:08;68.38;;;33.80;;
20734;SDS011;10528;52.124;5.196;2023-05-10T03:13:50;60.10;;;32.05;;
20734;SDS011;10528;52.124;5.196;2023-05-10T03:16:28;63.10;;;32.83;;
20734;SDS011;10528;52.124;5.196;2023-05-10T03:21:49;63.75;;;33.15;;
20734;SDS011;10528;52.124;5.196;2023-05-10T03:24:23;66.80;;;34.17;;
20734;SDS011;10528;52.124;5.196;2023-05-10T03:26:56;62.20;;;32.33;;
20734;SDS011;10528;52.124;5.196;2023-05-10T03:29:29;62.92;;;33.03;;
20734;SDS011;10528;52.124;5.196;2023-05-10T03:31:58;63.42;;;33.78;;
20734;SDS011;10528;52.124;5.196;2023-05-10T03:34:29;68.97;;;34.63;;
20734;SDS011;10528;52.124;5.196;2023-05-10T03:36:57;71.78;;;32.28;;
20734;SDS011;10528;52.124;5.196;2023-05-10T03:39:27;61.35;;;33.30;;
20734;SDS011;10528;52.124;5.196;2023-05-10T03:41:57;66.25;;;33.35;;
20734;SDS011;10528;52.124;5.196;2023-05-10T03:44:24;70.65;;;34.42;;
20734;SDS011;10528;52.124;5.196;2023-05-10T03:46:51;67.05;;;32.80;;
20734;SDS011;10528;52.124;5.196;2023-05-10T03:49:18;66.43;;;33.80;;
20734;SDS011;10528;52.124;5.196;2023-05-10T03:51:45;71.25;;;33.92;;
20734;SDS011;10528;52.124;5.196;2023-05-10T03:54:11;67.60;;;34.38;;
20734;SDS011;10528;52.124;5.196;2023-05-10T03:56:38;62.72;;;31.77;;
20734;SDS011;10528;52.124;5.196;2023-05-10T03:59:05;70.78;;;33.47;;
20734;SDS011;10528;52.124;5.196;2023-05-10T04:01:33;69.38;;;34.03;;
20734;SDS011;10528;52.124;5.196;2023-05-10T04:04:01;73.03;;;34.85;;
20734;SDS011;10528;52.124;5.196;2023-05-10T04:06:30;62.70;;;31.55;;
20734;SDS011;10528;52.124;5.196;2023-05-10T04:08:58;60.17;;;31.45;;
20734;SDS011;10528;52.124;5.196;2023-05-10T04:11:30;58.38;;;29.95;;
20734;SDS011;10528;52.124;5.196;2023-05-10T04:13:57;57.97;;;30.45;;
20734;SDS011;10528;52.124;5.196;2023-05-10T04:16:23;59.00;;;32.22;;
20734;SDS011;10528;52.124;5.196;2023-05-10T04:18:50;57.17;;;30.20;;
20734;SDS011;10528;52.124;5.196;2023-05-10T04:21:17;58.08;;;31.90;;
20734;SDS011;10528;52.124;5.196;2023-05-10T04:23:44;51.42;;;29.77;;
20734;SDS011;10528;52.124;5.196;2023-05-10T04:26:11;57.05;;;30.13;;
20734;SDS011;10528;52.124;5.196;2023-05-10T04:28:39;57.40;;;30.17;;
20734;SDS011;10528;52.124;5.196;2023-05-10T04:31:06;57.22;;;29.15;;
20734;SDS011;10528;52.124;5.196;2023-05-10T04:33:35;64.55;;;32.10;;
20734;SDS011;10528;52.124;5.196;2023-05-10T04:36:03;52.25;;;27.98;;
20734;SDS011;10528;52.124;5.196;2023-05-10T04:38:30;54.42;;;28.77;;
20734;SDS011;10528;52.124;5.196;2023-05-10T04:41:04;51.25;;;28.40;;
20734;SDS011;10528;52.124;5.196;2023-05-10T04:43:36;55.53;;;29.95;;
20734;SDS011;10528;52.124;5.196;2023-05-10T04:46:04;63.10;;;32.47;;
20734;SDS011;10528;52.124;5.196;2023-05-10T04:48:32;52.58;;;28.35;;
20734;SDS011;10528;52.124;5.196;2023-05-10T04:50:59;54.13;;;29.13;;
20734;SDS011;10528;52.124;5.196;2023-05-10T04:53:26;54.90;;;30.88;;
20734;SDS011;10528;52.124;5.196;2023-05-10T04:55:53;49.80;;;30.30;;
20734;SDS011;10528;52.124;5.196;2023-05-10T04:58:20;53.83;;;29.05;;
20734;SDS011;10528;52.124;5.196;2023-05-10T05:00:47;49.60;;;28.63;;
20734;SDS011;10528;52.124;5.196;2023-05-10T05:03:14;47.90;;;28.35;;
20734;SDS011;10528;52.124;5.196;2023-05-10T05:05:41;55.80;;;31.08;;
20734;SDS011;10528;52.124;5.196;2023-05-10T05:08:09;54.75;;;30.52;;
20734;SDS011;10528;52.124;5.196;2023-05-10T05:10:36;60.75;;;31.45;;
20734;SDS011;10528;52.124;5.196;2023-05-10T05:13:03;55.45;;;31.80;;
20734;SDS011;10528;52.124;5.196;2023-05-10T05:15:29;57.95;;;30.23;;
20734;SDS011;10528;52.124;5.196;2023-05-10T05:17:56;58.17;;;30.63;;
20734;SDS011;10528;52.124;5.196;2023-05-10T05:20:23;56.30;;;30.58;;
20734;SDS011;10528;52.124;5.196;2023-05-10T05:22:50;55.25;;;30.45;;
20734;SDS011;10528;52.124;5.196;2023-05-10T05:25:17;54.30;;;30.08;;
20734;SDS011;10528;52.124;5.196;2023-05-10T05:27:44;55.17;;;29.45;;
20734;SDS011;10528;52.124;5.196;2023-05-10T05:30:11;55.00;;;29.42;;
20734;SDS011;10528;52.124;5.196;2023-05-10T05:32:38;48.17;;;26.88;;
20734;SDS011;10528;52.124;5.196;2023-05-10T05:35:06;50.70;;;28.17;;
20734;SDS011;10528;52.124;5.196;2023-05-10T05:37:33;51.13;;;28.50;;
20734;SDS011;10528;52.124;5.196;2023-05-10T05:40:01;50.25;;;28.85;;
20734;SDS011;10528;52.124;5.196;2023-05-10T05:42:28;54.60;;;28.90;;
20734;SDS011;10528;52.124;5.196;2023-05-10T05:44:57;43.58;;;26.60;;
20734;SDS011;10528;52.124;5.196;2023-05-10T05:47:24;50.47;;;29.00;;
20734;SDS011;10528;52.124;5.196;2023-05-10T05:49:51;49.05;;;27.00;;
20734;SDS011;10528;52.124;5.196;2023-05-10T05:52:17;48.92;;;27.52;;
20734;SDS011;10528;52.124;5.196;2023-05-10T05:54:44;46.33;;;25.83;;
20734;SDS011;10528;52.124;5.196;2023-05-10T05:57:11;49.67;;;26.25;;
20734;SDS011;10528;52.124;5.196;2023-05-10T05:59:38;48.83;;;26.55;;
20734;SDS011;10528;52.124;5.196;2023-05-10T06:02:08;41.47;;;23.95;;
20734;SDS011;10528;52.124;5.196;2023-05-10T06:04:35;39.38;;;22.27;;
20734;SDS011;10528;52.124;5.196;2023-05-10T06:07:02;39.25;;;22.50;;
20734;SDS011;10528;52.124;5.196;2023-05-10T06:09:29;36.20;;;20.42;;
20734;SDS011;10528;52.124;5.196;2023-05-10T06:11:56;33.67;;;20.42;;
20734;SDS011;10528;52.124;5.196;2023-05-10T06:14:23;33.10;;;19.50;;
20734;SDS011;10528;52.124;5.196;2023-05-10T06:16:50;33.55;;;18.33;;
20734;SDS011;10528;52.124;5.196;2023-05-10T06:19:17;29.23;;;16.75;;
20734;SDS011;10528;52.124;5.196;2023-05-10T06:21:44;29.77;;;16.50;;
20734;SDS011;10528;52.124;5.196;2023-05-10T06:24:10;23.45;;;14.48;;
20734;SDS011;10528;52.124;5.196;2023-05-10T06:26:37;21.55;;;13.63;;
20734;SDS011;10528;52.124;5.196;2023-05-10T06:29:04;23.73;;;14.15;;
20734;SDS011;10528;52.124;5.196;2023-05-10T06:31:31;20.05;;;12.75;;
20734;SDS011;10528;52.124;5.196;2023-05-10T06:33:58;18.77;;;12.98;;
20734;SDS011;10528;52.124;5.196;2023-05-10T06:36:24;24.27;;;13.68;;
20734;SDS011;10528;52.124;5.196;2023-05-10T06:38:52;20.42;;;13.52;;
20734;SDS011;10528;52.124;5.196;2023-05-10T06:41:19;19.50;;;13.10;;
20734;SDS011;10528;52.124;5.196;2023-05-10T06:43:49;22.80;;;13.35;;
20734;SDS011;10528;52.124;5.196;2023-05-10T06:46:16;23.17;;;13.25;;
20734;SDS011;10528;52.124;5.196;2023-05-10T06:48:43;22.00;;;13.48;;
20734;SDS011;10528;52.124;5.196;2023-05-10T06:51:10;16.92;;;11.88;;
20734;SDS011;10528;52.124;5.196;2023-05-10T06:53:37;20.67;;;12.02;;
20734;SDS011;10528;52.124;5.196;2023-05-10T06:56:04;20.30;;;12.23;;
20734;SDS011;10528;52.124;5.196;2023-05-10T06:58:31;19.00;;;11.85;;
20734;SDS011;10528;52.124;5.196;2023-05-10T07:01:02;18.83;;;11.93;;
20734;SDS011;10528;52.124;5.196;2023-05-10T07:03:31;19.35;;;12.00;;
20734;SDS011;10528;52.124;5.196;2023-05-10T07:06:01;18.05;;;11.35;;
20734;SDS011;10528;52.124;5.196;2023-05-10T07:08:30;19.27;;;11.40;;
20734;SDS011;10528;52.124;5.196;2023-05-10T07:11:04;16.17;;;11.43;;
20734;SDS011;10528;52.124;5.196;2023-05-10T07:13:33;19.48;;;11.68;;
20734;SDS011;10528;52.124;5.196;2023-05-10T07:16:01;17.08;;;11.55;;
20734;SDS011;10528;52.124;5.196;2023-05-10T07:18:28;19.10;;;10.95;;
20734;SDS011;10528;52.124;5.196;2023-05-10T07:20:55;18.13;;;10.88;;
20734;SDS011;10528;52.124;5.196;2023-05-10T07:23:23;18.05;;;11.38;;
20734;SDS011;10528;52.124;5.196;2023-05-10T07:25:50;17.30;;;11.18;;
20734;SDS011;10528;52.124;5.196;2023-05-10T07:28:18;16.40;;;10.57;;
20734;SDS011;10528;52.124;5.196;2023-05-10T07:30:46;18.73;;;11.32;;
20734;SDS011;10528;52.124;5.196;2023-05-10T07:33:13;15.95;;;10.68;;
20734;SDS011;10528;52.124;5.196;2023-05-10T07:35:42;16.52;;;10.40;;
20734;SDS011;10528;52.124;5.196;2023-05-10T07:38:09;16.65;;;11.05;;
20734;SDS011;10528;52.124;5.196;2023-05-10T07:40:37;15.40;;;10.80;;
20734;SDS011;10528;52.124;5.196;2023-05-10T07:43:05;16.27;;;10.40;;
20734;SDS011;10528;52.124;5.196;2023-05-10T07:45:33;15.75;;;10.60;;
20734;SDS011;10528;52.124;5.196;2023-05-10T07:48:00;14.23;;;9.82;;
20734;SDS011;10528;52.124;5.196;2023-05-10T07:50:27;15.07;;;10.23;;
20734;SDS011;10528;52.124;5.196;2023-05-10T07:52:54;14.48;;;9.38;;
20734;SDS011;10528;52.124;5.196;2023-05-10T07:55:21;14.07;;;9.65;;
20734;SDS011;10528;52.124;5.196;2023-05-10T07:57:48;13.63;;;9.27;;
20734;SDS011;10528;52.124;5.196;2023-05-10T08:00:19;16.05;;;10.18;;
20734;SDS011;10528;52.124;5.196;2023-05-10T08:02:47;13.75;;;8.95;;
20734;SDS011;10528;52.124;5.196;2023-05-10T08:05:14;17.45;;;9.73;;
20734;SDS011;10528;52.124;5.196;2023-05-10T08:07:41;17.70;;;10.43;;
20734;SDS011;10528;52.124;5.196;2023-05-10T08:10:09;15.73;;;10.57;;
20734;SDS011;10528;52.124;5.196;2023-05-10T08:12:37;20.73;;;11.15;;
20734;SDS011;10528;52.124;5.196;2023-05-10T08:15:05;14.20;;;9.55;;
20734;SDS011;10528;52.124;5.196;2023-05-10T08:17:33;18.48;;;10.13;;
20734;SDS011;10528;52.124;5.196;2023-05-10T08:20:00;16.77;;;10.50;;
20734;SDS011;10528;52.124;5.196;2023-05-10T08:22:27;16.23;;;10.77;;
20734;SDS011;10528;52.124;5.196;2023-05-10T08:24:54;13.35;;;9.85;;
20734;SDS011;10528;52.124;5.196;2023-05-10T08:27:21;14.48;;;9.70;;
20734;SDS011;10528;52.124;5.196;2023-05-10T08:29:47;15.60;;;10.20;;
20734;SDS011;10528;52.124;5.196;2023-05-10T08:32:16;13.18;;;9.30;;
20734;SDS011;10528;52.124;5.196;2023-05-10T08:34:44;13.63;;;9.77;;
20734;SDS011;10528;52.124;5.196;2023-05-10T08:37:10;16.50;;;10.02;;
20734;SDS011;10528;52.124;5.196;2023-05-10T08:39:39;13.80;;;10.10;;
20734;SDS011;10528;52.124;5.196;2023-05-10T08:42:06;16.67;;;10.10;;
20734;SDS011;10528;52.124;5.196;2023-05-10T08:44:35;15.23;;;9.52;;
20734;SDS011;10528;52.124;5.196;2023-05-10T08:47:06;15.23;;;9.93;;
20734;SDS011;10528;52.124;5.196;2023-05-10T08:49:33;18.10;;;11.20;;
20734;SDS011;10528;52.124;5.196;2023-05-10T08:52:04;16.50;;;10.32;;
20734;SDS011;10528;52.124;5.196;2023-05-10T08:54:33;14.48;;;10.02;;
20734;SDS011;10528;52.124;5.196;2023-05-10T08:57:00;16.30;;;10.82;;
20734;SDS011;10528;52.124;5.196;2023-05-10T08:59:28;14.00;;;10.77;;
20734;SDS011;10528;52.124;5.196;2023-05-10T09:01:58;14.05;;;9.88;;
20734;SDS011;10528;52.124;5.196;2023-05-10T09:04:27;13.95;;;9.77;;
20734;SDS011;10528;52.124;5.196;2023-05-10T09:06:56;14.82;;;9.98;;
20734;SDS011;10528;52.124;5.196;2023-05-10T09:09:23;15.27;;;10.00;;
20734;SDS011;10528;52.124;5.196;2023-05-10T09:11:51;13.30;;;9.23;;
20734;SDS011;10528;52.124;5.196;2023-05-10T09:14:19;13.50;;;9.30;;
20734;SDS011;10528;52.124;5.196;2023-05-10T09:16:49;13.30;;;8.93;;
20734;SDS011;10528;52.124;5.196;2023-05-10T09:19:16;13.85;;;9.52;;
20734;SDS011;10528;52.124;5.196;2023-05-10T09:21:43;12.77;;;9.25;;
20734;SDS011;10528;52.124;5.196;2023-05-10T09:24:09;14.00;;;9.20;;
20734;SDS011;10528;52.124;5.196;2023-05-10T09:26:47;13.75;;;8.82;;
20734;SDS011;10528;52.124;5.196;2023-05-10T09:29:15;12.95;;;8.63;;
20734;SDS011;10528;52.124;5.196;2023-05-10T09:31:50;11.95;;;7.85;;
20734;SDS011;10528;52.124;5.196;2023-05-10T09:34:19;12.25;;;8.50;;
20734;SDS011;10528;52.124;5.196;2023-05-10T09:36:58;12.77;;;7.82;;
20734;SDS011;10528;52.124;5.196;2023-05-10T09:39:31;13.10;;;8.00;;
20734;SDS011;10528;52.124;5.196;2023-05-10T09:42:04;11.77;;;7.45;;
20734;SDS011;10528;52.124;5.196;2023-05-10T09:44:36;11.73;;;8.02;;
20734;SDS011;10528;52.124;5.196;2023-05-10T09:47:04;9.88;;;6.72;;
20734;SDS011;10528;52.124;5.196;2023-05-10T09:49:31;9.20;;;7.20;;
20734;SDS011;10528;52.124;5.196;2023-05-10T09:52:02;9.68;;;6.82;;
20734;SDS011;10528;52.124;5.196;2023-05-10T09:54:32;11.05;;;7.07;;
20734;SDS011;10528;52.124;5.196;2023-05-10T09:57:00;9.70;;;6.07;;
20734;SDS011;10528;52.124;5.196;2023-05-10T09:59:27;8.05;;;5.68;;
20734;SDS011;10528;52.124;5.196;2023-05-10T10:01:56;8.65;;;6.03;;
20734;SDS011;10528;52.124;5.196;2023-05-10T10:04:27;13.20;;;6.32;;
20734;SDS011;10528;52.124;5.196;2023-05-10T10:07:01;8.40;;;5.18;;
20734;SDS011;10528;52.124;5.196;2023-05-10T10:09:30;8.27;;;5.60;;
20734;SDS011;10528;52.124;5.196;2023-05-10T10:12:01;9.77;;;5.68;;
20734;SDS011;10528;52.124;5.196;2023-05-10T10:14:29;8.23;;;5.35;;
20734;SDS011;10528;52.124;5.196;2023-05-10T10:16:57;9.95;;;5.30;;
20734;SDS011;10528;52.124;5.196;2023-05-10T10:19:29;7.22;;;4.80;;
20734;SDS011;10528;52.124;5.196;2023-05-10T10:22:02;5.78;;;4.00;;
20734;SDS011;10528;52.124;5.196;2023-05-10T10:24:29;7.10;;;4.28;;
20734;SDS011;10528;52.124;5.196;2023-05-10T10:26:57;7.82;;;4.43;;
20734;SDS011;10528;52.124;5.196;2023-05-10T10:29:44;10.07;;;4.00;;
20734;SDS011;10528;52.124;5.196;2023-05-10T10:35:53;8.57;;;4.68;;
20734;SDS011;10528;52.124;5.196;2023-05-10T10:38:24;7.35;;;4.50;;
20734;SDS011;10528;52.124;5.196;2023-05-10T10:41:07;7.88;;;4.70;;
20734;SDS011;10528;52.124;5.196;2023-05-10T10:43:38;9.65;;;5.50;;
20734;SDS011;10528;52.124;5.196;2023-05-10T10:46:14;9.55;;;4.78;;
20734;SDS011;10528;52.124;5.196;2023-05-10T10:48:47;8.75;;;5.38;;
20734;SDS011;10528;52.124;5.196;2023-05-10T10:51:37;8.85;;;4.78;;
20734;SDS011;10528;52.124;5.196;2023-05-10T10:54:11;7.03;;;4.60;;
20734;SDS011;10528;52.124;5.196;2023-05-10T10:56:38;7.43;;;4.80;;
20734;SDS011;10528;52.124;5.196;2023-05-10T10:59:05;7.68;;;4.57;;
20734;SDS011;10528;52.124;5.196;2023-05-10T11:01:33;8.25;;;4.57;;
20734;SDS011;10528;52.124;5.196;2023-05-10T11:06:31;8.18;;;4.72;;
20734;SDS011;10528;52.124;5.196;2023-05-10T11:09:12;8.00;;;4.65;;
20734;SDS011;10528;52.124;5.196;2023-05-10T11:11:48;6.93;;;4.40;;
20734;SDS011;10528;52.124;5.196;2023-05-10T11:14:21;7.32;;;4.78;;
20734;SDS011;10528;52.124;5.196;2023-05-10T11:16:48;7.00;;;4.80;;
20734;SDS011;10528;52.124;5.196;2023-05-10T11:19:16;6.95;;;4.57;;
20734;SDS011;10528;52.124;5.196;2023-05-10T11:21:48;9.75;;;4.07;;
20734;SDS011;10528;52.124;5.196;2023-05-10T11:24:56;7.70;;;4.50;;
20734;SDS011;10528;52.124;5.196;2023-05-10T11:27:24;7.55;;;3.85;;
20734;SDS011;10528;52.124;5.196;2023-05-10T11:29:51;5.45;;;3.70;;
20734;SDS011;10528;52.124;5.196;2023-05-10T11:32:19;6.13;;;3.90;;
20734;SDS011;10528;52.124;5.196;2023-05-10T11:34:46;6.60;;;3.50;;
20734;SDS011;10528;52.124;5.196;2023-05-10T11:37:14;6.25;;;3.70;;
20734;SDS011;10528;52.124;5.196;2023-05-10T11:39:45;4.00;;;2.72;;
20734;SDS011;10528;52.124;5.196;2023-05-10T11:42:15;5.68;;;2.90;;
20734;SDS011;10528;52.124;5.196;2023-05-10T11:44:41;5.35;;;3.17;;
20734;SDS011;10528;52.124;5.196;2023-05-10T11:47:12;6.25;;;3.13;;
20734;SDS011;10528;52.124;5.196;2023-05-10T11:49:42;5.22;;;3.35;;
20734;SDS011;10528;52.124;5.196;2023-05-10T11:52:10;5.63;;;3.13;;
20734;SDS011;10528;52.124;5.196;2023-05-10T11:54:37;4.68;;;3.80;;
20734;SDS011;10528;52.124;5.196;2023-05-10T11:57:12;10.35;;;3.53;;
20734;SDS011;10528;52.124;5.196;2023-05-10T11:59:39;6.95;;;3.58;;
20734;SDS011;10528;52.124;5.196;2023-05-10T12:02:08;9.65;;;5.07;;
20734;SDS011;10528;52.124;5.196;2023-05-10T12:04:36;6.53;;;3.30;;
20734;SDS011;10528;52.124;5.196;2023-05-10T12:07:03;4.68;;;2.80;;
20734;SDS011;10528;52.124;5.196;2023-05-10T12:09:30;4.72;;;2.88;;
20734;SDS011;10528;52.124;5.196;2023-05-10T12:12:08;4.05;;;2.92;;
20734;SDS011;10528;52.124;5.196;2023-05-10T12:14:36;7.20;;;3.35;;
20734;SDS011;10528;52.124;5.196;2023-05-10T12:17:03;4.45;;;2.70;;
20734;SDS011;10528;52.124;5.196;2023-05-10T12:19:39;6.18;;;2.80;;
20734;SDS011;10528;52.124;5.196;2023-05-10T12:22:07;8.82;;;3.58;;
20734;SDS011;10528;52.124;5.196;2023-05-10T12:24:34;4.70;;;2.95;;
20734;SDS011;10528;52.124;5.196;2023-05-10T12:27:04;5.43;;;3.45;;
20734;SDS011;10528;52.124;5.196;2023-05-10T12:29:34;6.30;;;3.28;;
20734;SDS011;10528;52.124;5.196;2023-05-10T12:32:01;5.15;;;3.28;;
20734;SDS011;10528;52.124;5.196;2023-05-10T12:37:04;4.90;;;3.03;;
20734;SDS011;10528;52.124;5.196;2023-05-10T12:39:41;5.97;;;3.90;;
20734;SDS011;10528;52.124;5.196;2023-05-10T12:42:10;5.07;;;3.65;;
20734;SDS011;10528;52.124;5.196;2023-05-10T12:44:38;5.50;;;3.85;;
20734;SDS011;10528;52.124;5.196;2023-05-10T12:47:05;16.23;;;7.25;;
20734;SDS011;10528;52.124;5.196;2023-05-10T12:49:32;18.00;;;9.25;;
20734;SDS011;10528;52.124;5.196;2023-05-10T12:52:00;16.08;;;9.73;;
20734;SDS011;10528;52.124;5.196;2023-05-10T12:54:27;16.98;;;10.25;;
20734;SDS011;10528;52.124;5.196;2023-05-10T12:56:54;20.90;;;10.77;;
20734;SDS011;10528;52.124;5.196;2023-05-10T12:59:21;17.23;;;11.00;;
20734;SDS011;10528;52.124;5.196;2023-05-10T13:01:49;16.75;;;9.85;;
20734;SDS011;10528;52.124;5.196;2023-05-10T13:04:16;14.68;;;9.52;;
20734;SDS011;10528;52.124;5.196;2023-05-10T13:06:43;18.35;;;9.52;;
20734;SDS011;10528;52.124;5.196;2023-05-10T13:09:10;14.85;;;8.93;;
20734;SDS011;10528;52.124;5.196;2023-05-10T13:11:36;13.93;;;8.90;;
20734;SDS011;10528;52.124;5.196;2023-05-10T13:14:03;15.30;;;9.60;;
20734;SDS011;10528;52.124;5.196;2023-05-10T13:16:30;16.52;;;9.98;;
20734;SDS011;10528;52.124;5.196;2023-05-10T13:18:57;16.67;;;10.48;;
20734;SDS011;10528;52.124;5.196;2023-05-10T13:21:24;17.52;;;11.20;;
20734;SDS011;10528;52.124;5.196;2023-05-10T13:23:52;20.42;;;12.00;;
20734;SDS011;10528;52.124;5.196;2023-05-10T13:26:19;17.73;;;11.52;;
20734;SDS011;10528;52.124;5.196;2023-05-10T13:28:46;18.17;;;11.95;;
20734;SDS011;10528;52.124;5.196;2023-05-10T13:31:14;20.23;;;12.00;;
20734;SDS011;10528;52.124;5.196;2023-05-10T13:33:41;16.15;;;11.07;;
20734;SDS011;10528;52.124;5.196;2023-05-10T13:36:08;17.80;;;11.27;;
20734;SDS011;10528;52.124;5.196;2023-05-10T13:38:35;17.33;;;10.45;;
20734;SDS011;10528;52.124;5.196;2023-05-10T13:41:02;15.65;;;9.77;;
20734;SDS011;10528;52.124;5.196;2023-05-10T13:43:29;18.05;;;10.77;;
20734;SDS011;10528;52.124;5.196;2023-05-10T13:45:56;17.25;;;10.07;;
20734;SDS011;10528;52.124;5.196;2023-05-10T13:48:23;16.83;;;10.00;;
20734;SDS011;10528;52.124;5.196;2023-05-10T13:50:50;16.52;;;9.40;;
20734;SDS011;10528;52.124;5.196;2023-05-10T13:53:17;14.45;;;9.35;;
20734;SDS011;10528;52.124;5.196;2023-05-10T13:55:44;13.30;;;8.65;;
20734;SDS011;10528;52.124;5.196;2023-05-10T13:58:10;15.73;;;9.20;;
20734;SDS011;10528;52.124;5.196;2023-05-10T14:00:37;13.20;;;8.10;;
20734;SDS011;10528;52.124;5.196;2023-05-10T14:03:04;14.43;;;9.00;;
20734;SDS011;10528;52.124;5.196;2023-05-10T14:05:32;13.50;;;8.40;;
20734;SDS011;10528;52.124;5.196;2023-05-10T14:07:59;14.30;;;9.00;;
20734;SDS011;10528;52.124;5.196;2023-05-10T14:10:26;16.30;;;8.70;;
20734;SDS011;10528;52.124;5.196;2023-05-10T14:12:53;12.02;;;7.53;;
20734;SDS011;10528;52.124;5.196;2023-05-10T14:15:20;10.55;;;6.90;;
20734;SDS011;10528;52.124;5.196;2023-05-10T14:17:47;11.02;;;7.28;;
20734;SDS011;10528;52.124;5.196;2023-05-10T14:20:14;13.60;;;7.60;;
20734;SDS011;10528;52.124;5.196;2023-05-10T14:22:41;11.93;;;7.25;;
20734;SDS011;10528;52.124;5.196;2023-05-10T14:25:08;11.52;;;7.65;;
20734;SDS011;10528;52.124;5.196;2023-05-10T14:27:35;14.05;;;8.10;;
20734;SDS011;10528;52.124;5.196;2023-05-10T14:30:02;21.13;;;7.93;;
20734;SDS011;10528;52.124;5.196;2023-05-10T14:32:29;11.93;;;7.38;;
20734;SDS011;10528;52.124;5.196;2023-05-10T14:34:58;12.73;;;7.60;;
20734;SDS011;10528;52.124;5.196;2023-05-10T14:37:25;10.30;;;6.80;;
20734;SDS011;10528;52.124;5.196;2023-05-10T14:39:52;11.98;;;7.60;;
20734;SDS011;10528;52.124;5.196;2023-05-10T14:42:20;9.88;;;6.40;;
20734;SDS011;10528;52.124;5.196;2023-05-10T14:44:47;9.48;;;6.63;;
20734;SDS011;10528;52.124;5.196;2023-05-10T14:47:14;9.52;;;6.50;;
20734;SDS011;10528;52.124;5.196;2023-05-10T14:49:41;10.32;;;6.43;;
20734;SDS011;10528;52.124;5.196;2023-05-10T14:52:07;12.30;;;8.27;;
20734;SDS011;10528;52.124;5.196;2023-05-10T14:54:34;9.95;;;7.25;;
20734;SDS011;10528;52.124;5.196;2023-05-10T14:57:01;10.70;;;7.50;;
20734;SDS011;10528;52.124;5.196;2023-05-10T14:59:28;10.85;;;7.35;;
20734;SDS011;10528;52.124;5.196;2023-05-10T15:01:55;13.25;;;8.13;;